Station: Keith

  Atmospheric Gas Attenuation - ITU Rec 676-11   --------------- db/100km ---------------
Date Time Temp RH % AH g/m3 Dew Point Wind Direction Speed kph Gust kph Barometer mB Rainfall Since 9am 24GHz 47GHz 76GHz 122GHz 134GHz 241GHz
16 09:00 7 94 7.29 6.1 0 1025.4 0 17.1 26.2 38.3 100.2 89.9 307.6
14 09:00 4.5 95 6.25 3.8 0 1029.5 0.1 14.9 25.3 35.3 92.0 78.5 267.2
13 09:00 4.8 95 6.38 4.1 0 1028.4 0.2 15.2 25.4 35.6 93.0 79.9 272.2
12 09:00 9.4 97 8.78 9 9 1020.4 7 20.2 27.8 43.2 113.4 107.4 369.1
11 09:00 10 92 8.65 8.8 11 1017.3 18 19.9 27.3 42.2 110.7 104.4 359.0
10 09:00 8.8 75 6.53 4.7 9 1021 0 15.4 24.2 34.2 89.3 77.4 264.0
09 09:00 5.6 94 6.65 4.7 15 1027.2 0 15.8 25.6 36.3 94.9 82.7 282.2
08 09:00 7.5 93 7.45 6.4 7 1029.4 0 17.4 26.5 38.9 101.8 91.8 314.4
07 09:00 10.5 83 8.05 7.8 0 1033.7 0 18.6 26.7 40.1 105.0 96.8 332.2
06 09:00 10 81 7.61 7 0 1034.4 0 17.6 26.2 38.6 100.8 91.5 313.4
05 09:00 10.8 79 7.81 7.4 11 1031.4 1 18.0 26.2 38.9 101.7 93.0 318.9
04 09:00 9.8 96 8.91 9.2 11 1029.4 2 20.4 28.3 44.0 115.3 109.4 376.4
03 09:00 9.8 89 8.26 8.1 19 1020.5 3 19.0 26.8 40.8 106.9 99.5 341.8
02 09:00 8.4 89 7.55 6.7 7 1016.1 6 17.6 25.8 38.3 100.3 91.1 312.2
01 09:00 10.4 55 5.3 1.9 13 1012.1 0 12.7 21.6 28.5 74.2 59.9 203.0
30 09:00 7.8 72 5.88 3.1 19 1015.7 0 14.0 23.3 31.8 83.0 69.5 236.3
29 09:00 5.8 82 5.88 2.9 7 1027.2 0 14.1 24.2 33.1 86.2 72.0 244.8
28 09:00 9 70 6.17 3.9 9 1029.8 0 14.6 23.9 33.0 86.1 73.0 248.8
27 09:00 9.5 80 7.28 6.2 9 1029.1 3 17.0 25.6 37.2 97.3 87.2 298.4
26 09:00 9 97 8.55 8.6 0 1028.3 0.4 19.7 27.9 42.8 112.2 105.3 361.9
25 09:00 9 79 6.97 5.5 15 1020.9 6 16.3 24.9 35.8 93.7 83.0 283.7
24 09:00 10.2 95 9.04 9.4 4 1021.6 0.6 20.7 28.1 43.9 115.3 110.0 378.5
23 09:00 11.5 96 9.92 10.9 11 1019.6 3 22.5 29.1 46.9 123.3 120.4 415.1
22 09:00 10.6 82 8.01 7.7 11 1015.3 2 18.5 25.9 39.1 102.5 94.7 325.0
21 09:00 9 93 8.2 8 9 1012.1 2 19.0 26.6 40.5 106.4 99.0 340.1
20 09:00 10.5 86 8.34 8.2 13 1016.3 0.4 19.2 26.6 40.5 106.4 99.4 341.4
19 09:00 11.8 62 6.53 4.8 17 1019.9 0 15.3 23.4 32.9 85.8 74.4 254.0
18 09:00 10 89 8.36 8.3 15 1031.7 0.1 19.2 27.3 41.6 108.9 101.6 348.9
17 09:00 11.2 97 9.83 10.8 9 1034.1 1 22.3 29.6 47.4 124.4 121.0 416.9
16 09:00 13.5 88 10.29 11.6 15 1024.2 3 23.2 29.2 47.5 124.9 123.0 424.2
15 11:18 14.8 76 9.63 10.6 15 1020.9 21.7 27.6 43.8 115.1 111.5 384.4
14 09:00 10 84 7.9 7.5 19 1016.4 8 18.3 26.0 39.0 102.2 94.0 322.5
13 09:00 12 53 5.65 2.9 15 1009.9 0 13.4 21.7 29.1 76.0 62.8 213.4
12 09:00 9.4 81 7.33 6.4 11 1023.1 0 17.1 25.5 37.2 97.4 87.5 299.6
11 09:00 5 84 5.71 2.5 4 1026.8 0 13.8 24.2 32.7 85.2 70.5 239.2
10 09:00 5 92 6.26 3.8 0 1028.8 0 14.9 25.2 35.1 91.4 78.1 265.8
09 09:00 4.2 87 5.61 2.2 0 1033 0 13.6 24.5 32.9 85.6 70.2 238.1
08 09:00 3 96 5.71 2.5 4 1033.8 0 13.8 25.0 33.8 88.1 72.8 246.8
07 09:00 8.6 83 7.13 5.9 0 1028.8 0 16.7 25.6 37.0 96.7 86.1 294.6
06 09:00 4 97 6.17 3.5 7 1027.5 0 14.8 25.2 35.1 91.5 77.7 264.6
05 09:00 5.5 92 6.47 4.3 0 1031.9 0 15.4 25.5 35.8 93.5 80.7 274.9
04 09:00 6 92 6.68 4.8 9 1035.6 0 15.8 25.8 36.7 95.6 83.3 284.2
03 09:00 11.5 65 6.71 5.1 11 1033.6 1 15.6 24.3 34.3 89.3 77.9 266.0
02 09:00 11.2 97 9.83 10.8 15 1022.9 1 22.4 29.2 46.8 123.1 119.9 413.3
01 09:00 8.5 79 6.75 5.1 13 1014.6 11 15.9 24.4 34.9 91.3 80.1 273.7
31 09:00 11 93 9.31 10 11 1014.5 1 21.3 28.0 44.3 116.4 112.0 385.8
30 09:00 13.4 89 10.35 11.7 13 1017.7 0 23.4 29.1 47.5 125.0 123.3 425.6
29 09:00 10.2 91 8.66 8.8 11 1026.7 0.2 19.9 27.6 42.5 111.5 105.1 361.3
28 09:00 11.5 99 10.23 11.3 13 1023.3 0.4 23.2 29.8 48.4 127.4 125.3 432.0
27 09:00 12 90 9.59 10.4 9 1019.7 0 21.8 28.3 45.2 118.7 115.0 396.1
26 09:00 10.2 78 7.42 6.6 11 1022.8 0 17.2 25.4 37.2 97.3 87.8 300.7
25 09:00 8.5 96 8.2 7.9 0 1025.8 0 19.0 27.3 41.4 108.6 100.8 346.1
24 09:00 9.6 95 8.7 8.8 4 1026.1 0.4 20.0 27.8 43.0 112.8 106.4 365.9
23 09:00 11.4 97 9.96 11 4 1022.3 4 22.6 29.3 47.3 124.2 121.4 418.6
22 09:00 10.5 100 9.7 10.5 6 1023.6 0.2 22.1 29.2 46.7 122.8 119.2 410.7
21 09:00 9 86 7.58 6.8 13 1022.8 12 17.6 26.0 38.4 100.6 91.3 313.0
20 09:00 10.5 89 8.63 8.7 15 1017.5 3 19.8 27.1 41.8 109.7 103.5 355.8
19 09:00 14.6 88 11.01 12.6 11 1018.9 0 24.7 29.9 49.7 130.8 130.8 452.0
18 09:00 12 87 9.27 10 11 1028.7 0 21.1 28.2 44.2 116.1 111.3 383.2
17 09:00 9.6 76 6.96 5.6 0 1032.3 0 16.3 25.1 36.0 94.0 83.0 283.7
16 09:00 12.2 53 5.72 3 11 1030.4 0 13.5 22.5 30.1 78.2 64.6 219.6
15 09:00 8.5 82 7 5.6 0 1032.5 0 16.4 25.5 36.7 95.8 84.7 289.7
14 09:00 10 80 7.52 6.8 11 1032 0.1 17.4 25.9 38.1 99.6 90.1 308.5
13 09:00 10.5 89 8.63 8.7 7 1028.4 3 19.8 27.5 42.3 110.9 104.4 358.9
12 09:00 12.4 79 8.63 8.8 11 1023.3 0.1 19.7 26.7 41.1 107.7 101.4 348.8
11 09:00 11.4 85 8.73 9 13 1029.9 2 20.0 27.5 42.3 111.0 104.7 360.0
10 09:00 10.3 83 7.95 7.6 9 1027.2 2 18.4 26.4 39.5 103.5 95.2 326.5
09 09:00 11 85 8.51 8.6 11 1013.2 18 19.5 26.6 40.9 107.2 100.8 346.5
08 09:00 14.6 82 10.26 11.6 19 1014.1 0 23.1 28.4 46.2 121.6 119.8 413.5
07 09:00 1013.1
06 09:00 11.8 69 7.26 6.3 13 1023.4 0 16.8 24.7 35.9 93.7 84.0 287.5
05 09:00 11 77 7.71 7.2 11 1029.7 0.1 17.8 25.9 38.3 100.2 91.3 313.0
04 09:00 13.2 64 7.35 6.7 0 1031 0 16.9 24.7 35.9 93.8 84.2 288.3
03 09:00 12.2 71 7.66 7.2 0 1027.8 2 17.6 25.4 37.4 97.9 89.1 305.4
02 09:00 13 88 9.98 11.1 15 1014 2 22.6 28.5 46.0 120.9 118.4 408.3
01 09:00 13.2 79 9.07 9.7 4 1011 5 20.6 26.8 41.9 110.1 105.3 362.5
30 09:00 10.5 81 7.86 7.4 11 1013.2 4 18.2 25.6 38.4 100.8 92.6 317.8
29 09:00 12.8 96 10.75 12.2 13 1007.2 9 24.3 29.6 49.1 129.4 129.0 445.4
28 09:00 14 69 8.32 8.4 11 1016.7 0 19.0 25.5 38.7 101.6 94.8 325.7
27 09:00 13.8 75 8.94 9.5 0 1025.6 0 20.3 26.9 41.7 109.4 104.0 357.8
26 09:00 15.2 84 10.9 12.6 15 1019 20 24.4 29.5 48.8 128.5 128.3 443.1
25 09:00 15.5 79 10.44 12 11 1018 0.1 23.4 28.6 46.7 122.7 121.3 418.7
24 09:00 15.5 88 11.63 13.5 11 1021 2 26.0 30.8 51.9 136.7 138.4 478.3
23 09:00 14.5 73 9.08 9.7 15 1016.1 0 20.6 26.6 41.5 109.0 104.1 358.5
22 09:00 13.8 97 11.56 13.3 13 1022.7 9 25.9 31.3 52.8 139.1 140.7 486.1
21 09:00 16.5 57 8 8 11 1016.8 0 18.2 24.3 36.3 95.2 87.8 301.5
20 09:00 17.8 58 8.8 9.6 11 1012.2 0.2 19.8 25.0 38.6 101.2 95.9 330.3
19 09:00 11.5 96 9.92 10.9 9 1016 0 22.5 28.9 46.7 122.9 120.1 414.0
18 09:00 14.5 75 9.33 10.1 0 1018.5 0 21.1 27.1 42.6 112.0 107.7 370.9
17 09:00 16.5 63 8.85 9.4 13 1018.9 0.1 20.0 25.7 39.7 104.1 98.7 339.9
16 09:00 17.5 83 12.37 14.6 11 1014.2 0.4 27.4 31.1 53.4 140.9 144.5 500.1
15 09:00 20.6 29 5.19 1.9 15 1018 0 12.1 19.4 25.0 65.0 51.9 176.1
14 09:00 17.4 40 5.93 3.6 0 1022.5 0 13.8 21.3 28.7 74.7 62.5 213.1
13 09:00 14.6 61 7.63 7.3 9 1021.9 0 17.5 24.5 36.0 94.1 85.6 293.6
12 09:00 14 52 6.27 4.4 11 1023.6 0 14.6 22.6 31.2 81.3 69.4 236.7
10 09:00 14.4 82 10.14 11.4 15 1019.5 0 22.8 28.5 46.1 121.2 119.0 410.5
09 09:00 13.8 81 9.65 10.7 9 1026 0 21.8 28.1 44.7 117.4 113.7 391.9
08 09:00 14 73 8.81 9.3 11 1026.6 0 20.0 26.7 41.1 107.9 102.0 351.1
07 09:00 14.5 62 7.71 7.4 9 1024.9 0 17.7 24.7 36.5 95.4 86.9 298.2
06 09:00 14.5 75 9.33 10.1 9 1023.9 1 21.1 27.3 42.9 112.5 108.1 372.5

Last Refresh: 17-Jul-2020 02:37:54

Most of the information presented on this site is sourced from the Bureau of Meteorology.  Copyright in all material sourced from the Bureau of Meteorology resides with the Commonwealth of Australia.